Time;durP1;ratioP1;P1;durP2;ratioP2;P2;SDS_P1;SDS_P2;PMS_P1;PMS_P2;Temp;Humidity;BMP_temperature;BMP_pressure;BME280_temperature;BME280_humidity;BME280_pressure;Samples;Min_cycle;Max_cycle;Signal;HPM_P1;HPM_P2
2021/07/13 00:00:37;;;;;;;;;;;17.70;92.20;;;;;;5054764;28;19923;-76
2021/07/13 00:03:03;;;;;;;;;;;17.40;92.90;;;;;;5054918;28;19909;-77
2021/07/13 00:05:29;;;;;;;;;;;17.20;93.90;;;;;;5054328;28;20041;-76
2021/07/13 00:07:55;;;;;;;;;;;17.00;94.40;;;;;;5054835;28;19912;-77
2021/07/13 00:10:23;;;;;;;;;;;17.00;95.00;;;;;;5054788;28;19907;-75
2021/07/13 00:12:49;;;;;;;;;;;16.60;95.50;;;;;;5054704;28;19931;-76
2021/07/13 00:15:22;;;;;;;;;;;16.50;96.30;;;;;;5054732;28;20351;-76
2021/07/13 00:17:51;;;;;;;;;;;16.40;96.40;;;;;;5054658;28;20318;-77
2021/07/13 00:20:17;;;;;;;;;;;16.30;96.50;;;;;;5054573;28;20336;-76
2021/07/13 00:22:43;;;;;;;;;;;16.20;96.70;;;;;;5054493;28;19909;-76
2021/07/13 00:25:09;;;;;;;;;;;16.20;96.90;;;;;;5054611;28;19928;-76
2021/07/13 00:27:35;;;;;;;;;;;16.10;97.00;;;;;;5054870;28;20256;-76
2021/07/13 00:30:01;;;;;;;;;;;16.20;97.00;;;;;;5054468;28;20003;-75
2021/07/13 00:32:26;;;;;;;;;;;16.10;97.20;;;;;;5054307;28;19988;-77
2021/07/13 00:34:52;;;;;;;;;;;16.20;97.30;;;;;;5054275;28;19978;-75
2021/07/13 00:37:18;;;;;;;;;;;16.10;97.50;;;;;;5054265;28;19905;-76
2021/07/13 00:39:43;;;;;;;;;;;16.20;97.40;;;;;;5054542;28;20364;-76
2021/07/13 00:42:15;;;;;;;;;;;16.30;97.10;;;;;;5054419;28;19905;-75
2021/07/13 00:44:42;;;;;;;;;;;16.50;97.30;;;;;;5054659;28;19976;-76
2021/07/13 00:47:08;;;;;;;;;;;16.60;96.90;;;;;;5054144;28;19912;-76
2021/07/13 00:49:34;;;;;;;;;;;16.60;96.80;;;;;;5054073;28;19905;-77
2021/07/13 00:52:00;;;;;;;;;;;16.40;97.00;;;;;;5054277;28;20085;-76
2021/07/13 00:54:26;;;;;;;;;;;16.40;97.40;;;;;;5053958;28;19908;-76
2021/07/13 00:56:54;;;;;;;;;;;16.30;97.50;;;;;;5053910;28;19995;-76
2021/07/13 00:59:20;;;;;;;;;;;16.40;97.40;;;;;;5054079;28;20384;-76
2021/07/13 01:01:47;;;;;;;;;;;16.30;97.70;;;;;;5053570;28;19909;-75
2021/07/13 01:04:13;;;;;;;;;;;16.40;97.60;;;;;;5053813;28;19908;-75
2021/07/13 01:06:48;;;;;;;;;;;16.30;97.60;;;;;;5053778;28;19911;-76
2021/07/13 01:09:17;;;;;;;;;;;16.40;97.50;;;;;;5053599;28;19944;-77
2021/07/13 01:11:56;;;;;;;;;;;16.30;97.60;;;;;;5053699;28;19909;-75
2021/07/13 01:14:27;;;;;;;;;;;16.40;97.70;;;;;;5053967;28;19908;-75
2021/07/13 01:17:05;;;;;;;;;;;16.20;97.70;;;;;;5053101;28;19908;-76
2021/07/13 01:19:33;;;;;;;;;;;16.10;98.10;;;;;;5053692;28;19911;-76
2021/07/13 01:22:22;;;;;;;;;;;16.20;97.90;;;;;;5053605;28;20383;-76
2021/07/13 01:25:11;;;;;;;;;;;16.40;97.60;;;;;;5053423;28;20357;-76
2021/07/13 01:27:55;;;;;;;;;;;16.20;97.70;;;;;;5053579;28;19954;-76
2021/07/13 01:30:25;;;;;;;;;;;16.20;97.90;;;;;;5053656;28;19943;-75
2021/07/13 01:32:53;;;;;;;;;;;16.10;98.20;;;;;;5053364;28;20353;-77
2021/07/13 01:35:24;;;;;;;;;;;16.10;98.10;;;;;;5053598;28;19904;-75
2021/07/13 01:37:53;;;;;;;;;;;16.20;98.10;;;;;;5053679;28;19905;-76
2021/07/13 01:40:19;;;;;;;;;;;16.10;98.10;;;;;;5053381;28;19958;-75
2021/07/13 01:42:45;;;;;;;;;;;16.10;98.10;;;;;;5053393;28;19905;-75
2021/07/13 01:45:11;;;;;;;;;;;16.20;98.00;;;;;;5053377;28;19908;-76
2021/07/13 01:47:37;;;;;;;;;;;16.30;97.80;;;;;;5053439;28;19991;-77
2021/07/13 01:50:07;;;;;;;;;;;16.30;97.90;;;;;;5053267;28;20348;-74
2021/07/13 01:52:33;;;;;;;;;;;16.30;97.90;;;;;;5051100;28;19908;-76
2021/07/13 01:54:59;;;;;;;;;;;16.40;97.70;;;;;;5053230;28;20277;-76
2021/07/13 01:57:28;;;;;;;;;;;16.50;97.80;;;;;;5053232;28;19905;-76
2021/07/13 01:59:54;;;;;;;;;;;16.70;97.40;;;;;;5053044;28;19916;-76
2021/07/13 02:02:20;;;;;;;;;;;16.40;97.60;;;;;;5053650;28;19919;-76
2021/07/13 02:04:47;;;;;;;;;;;16.20;98.20;;;;;;5053331;28;19997;-76
2021/07/13 02:07:13;;;;;;;;;;;16.10;98.50;;;;;;5053119;28;19909;-77
2021/07/13 02:09:41;;;;;;;;;;;16.10;98.50;;;;;;5053307;28;19905;-76
2021/07/13 02:12:07;;;;;;;;;;;16.10;98.70;;;;;;5053071;28;19911;-77
2021/07/13 02:14:34;;;;;;;;;;;16.10;98.70;;;;;;5052972;28;20272;-77
2021/07/13 02:16:59;;;;;;;;;;;16.10;98.70;;;;;;5053419;28;19995;-78
2021/07/13 02:19:26;;;;;;;;;;;16.00;98.70;;;;;;5053002;28;19999;-76
2021/07/13 02:21:52;;;;;;;;;;;16.20;98.90;;;;;;5051717;28;19904;-75
2021/07/13 02:24:17;;;;;;;;;;;16.30;99.30;;;;;;5052978;28;19999;-76
2021/07/13 02:26:47;;;;;;;;;;;16.30;99.30;;;;;;5053060;28;19905;-77
2021/07/13 02:29:18;;;;;;;;;;;16.10;99.60;;;;;;5055125;28;19909;-76
2021/07/13 02:31:46;;;;;;;;;;;16.30;99.70;;;;;;5056914;28;19916;-76
2021/07/13 02:34:12;;;;;;;;;;;16.50;99.00;;;;;;5056579;28;19909;-76
2021/07/13 02:36:41;;;;;;;;;;;16.50;98.90;;;;;;5056614;28;19905;-77
2021/07/13 02:39:08;;;;;;;;;;;16.50;98.90;;;;;;5056884;28;20017;-77
2021/07/13 02:41:34;;;;;;;;;;;16.50;98.90;;;;;;5056347;28;19995;-77
2021/07/13 02:44:00;;;;;;;;;;;16.40;99.00;;;;;;5056482;28;20273;-76
2021/07/13 02:46:28;;;;;;;;;;;16.40;99.30;;;;;;5056464;28;19931;-77
2021/07/13 02:48:55;;;;;;;;;;;16.50;99.20;;;;;;5056353;28;19908;-76
2021/07/13 02:51:22;;;;;;;;;;;16.40;99.40;;;;;;5056632;28;19905;-76
2021/07/13 02:53:48;;;;;;;;;;;16.10;99.90;;;;;;5056186;28;19909;-77
2021/07/13 02:56:14;;;;;;;;;;;16.20;99.80;;;;;;5055972;28;19991;-76
2021/07/13 02:58:40;;;;;;;;;;;16.10;99.90;;;;;;5056197;28;19905;-75
2021/07/13 03:01:07;;;;;;;;;;;16.00;99.90;;;;;;5055880;28;20405;-75
2021/07/13 03:03:34;;;;;;;;;;;16.10;99.90;;;;;;5056310;28;19912;-76
2021/07/13 03:06:01;;;;;;;;;;;16.00;99.90;;;;;;5056204;28;19905;-77
2021/07/13 03:08:27;;;;;;;;;;;16.10;99.90;;;;;;5056020;28;20007;-76
2021/07/13 03:10:54;;;;;;;;;;;16.20;99.90;;;;;;5055993;28;20402;-75
2021/07/13 03:13:24;;;;;;;;;;;16.30;99.90;;;;;;5055833;28;20376;-77
2021/07/13 03:15:50;;;;;;;;;;;16.30;99.90;;;;;;5056007;28;20041;-76
2021/07/13 03:18:16;;;;;;;;;;;16.30;99.90;;;;;;5055884;28;19908;-77
2021/07/13 03:20:42;;;;;;;;;;;16.50;99.90;;;;;;5055812;28;19911;-77
2021/07/13 03:23:08;;;;;;;;;;;16.50;99.90;;;;;;5055861;28;19931;-76
2021/07/13 03:25:36;;;;;;;;;;;16.60;99.90;;;;;;5055880;28;19936;-76
2021/07/13 03:28:03;;;;;;;;;;;16.60;99.90;;;;;;5055705;28;20293;-76
2021/07/13 03:30:29;;;;;;;;;;;16.70;99.90;;;;;;5055588;28;19905;-75
2021/07/13 03:32:55;;;;;;;;;;;16.70;99.90;;;;;;5055513;28;19955;-76
2021/07/13 03:35:21;;;;;;;;;;;16.70;99.90;;;;;;5055703;28;19904;-76
2021/07/13 03:37:48;;;;;;;;;;;16.80;99.90;;;;;;5055500;28;19912;-75
2021/07/13 03:40:14;;;;;;;;;;;16.90;99.90;;;;;;5054529;28;20285;-77
2021/07/13 03:42:40;;;;;;;;;;;16.90;99.90;;;;;;5055360;28;20319;-77
2021/07/13 03:45:05;;;;;;;;;;;16.90;99.90;;;;;;5055343;28;19905;-75
2021/07/13 03:47:31;;;;;;;;;;;16.90;99.90;;;;;;5055361;28;19943;-76
2021/07/13 03:49:58;;;;;;;;;;;16.90;99.90;;;;;;5055254;28;20381;-75
2021/07/13 03:52:23;;;;;;;;;;;17.00;99.90;;;;;;5055177;28;19938;-76
2021/07/13 03:54:49;;;;;;;;;;;17.10;99.90;;;;;;5055171;28;19908;-76
2021/07/13 03:57:15;;;;;;;;;;;17.10;99.90;;;;;;5055646;28;19916;-77
2021/07/13 03:59:40;;;;;;;;;;;17.10;99.90;;;;;;5053516;28;20361;-75
2021/07/13 04:02:06;;;;;;;;;;;17.20;99.90;;;;;;5053447;28;19909;-77
2021/07/13 04:04:31;;;;;;;;;;;17.40;99.90;;;;;;5054983;28;19904;-75
2021/07/13 04:06:57;;;;;;;;;;;17.40;99.90;;;;;;5054906;28;19904;-75
2021/07/13 04:09:23;;;;;;;;;;;17.30;99.90;;;;;;5054902;28;19909;-75
2021/07/13 04:11:48;;;;;;;;;;;17.30;99.90;;;;;;5055219;28;19920;-77
2021/07/13 04:14:14;;;;;;;;;;;17.30;99.90;;;;;;5054676;28;19915;-77
2021/07/13 04:16:39;;;;;;;;;;;17.30;99.90;;;;;;5054774;28;19905;-76
2021/07/13 04:19:05;;;;;;;;;;;17.30;99.90;;;;;;5054725;28;19905;-76
2021/07/13 04:21:31;;;;;;;;;;;17.30;99.90;;;;;;5054637;28;19905;-76
2021/07/13 04:23:56;;;;;;;;;;;17.20;99.90;;;;;;5054549;28;19927;-76
2021/07/13 04:26:22;;;;;;;;;;;17.30;99.90;;;;;;5054546;28;19908;-77
2021/07/13 04:28:48;;;;;;;;;;;17.30;99.90;;;;;;5054529;28;19920;-76
2021/07/13 04:31:13;;;;;;;;;;;17.30;99.90;;;;;;5054460;28;19905;-77
2021/07/13 04:33:39;;;;;;;;;;;17.20;99.90;;;;;;5052986;28;19915;-77
2021/07/13 04:36:05;;;;;;;;;;;17.30;99.90;;;;;;5054341;28;19932;-76
2021/07/13 04:38:30;;;;;;;;;;;17.30;99.90;;;;;;5054592;28;20015;-76
2021/07/13 04:40:56;;;;;;;;;;;17.20;99.90;;;;;;5054344;28;19951;-76
2021/07/13 04:43:22;;;;;;;;;;;17.20;99.90;;;;;;5054265;28;20101;-76
2021/07/13 04:45:48;;;;;;;;;;;17.30;99.90;;;;;;5054362;28;19916;-77
2021/07/13 04:48:13;;;;;;;;;;;17.20;99.90;;;;;;5054213;28;20407;-75
2021/07/13 04:50:39;;;;;;;;;;;17.20;99.90;;;;;;5054070;28;19905;-76
2021/07/13 04:53:05;;;;;;;;;;;17.10;99.90;;;;;;5052548;28;20394;-76
2021/07/13 04:55:30;;;;;;;;;;;17.20;99.90;;;;;;5054000;28;19904;-76
2021/07/13 04:57:56;;;;;;;;;;;17.20;99.90;;;;;;5054094;28;19905;-77
2021/07/13 05:00:22;;;;;;;;;;;17.20;99.90;;;;;;5053913;28;19924;-77
2021/07/13 05:02:47;;;;;;;;;;;17.20;99.90;;;;;;5054224;28;20314;-76
2021/07/13 05:05:14;;;;;;;;;;;17.10;99.90;;;;;;5054094;28;19905;-75
2021/07/13 05:07:41;;;;;;;;;;;17.10;99.90;;;;;;5053836;28;19954;-77
2021/07/13 05:10:07;;;;;;;;;;;17.10;99.90;;;;;;5053851;28;19904;-78
2021/07/13 05:12:33;;;;;;;;;;;17.10;99.90;;;;;;5053732;28;20407;-76
2021/07/13 05:14:59;;;;;;;;;;;17.10;99.90;;;;;;5054112;28;19908;-77
2021/07/13 05:17:24;;;;;;;;;;;17.10;99.90;;;;;;5052433;28;19927;-75
2021/07/13 05:19:50;;;;;;;;;;;17.10;99.90;;;;;;5053679;28;19912;-77
2021/07/13 05:22:16;;;;;;;;;;;17.10;99.90;;;;;;5053783;28;20289;-76
2021/07/13 05:24:41;;;;;;;;;;;17.10;99.90;;;;;;5053579;28;19904;-76
2021/07/13 05:27:11;;;;;;;;;;;17.20;99.90;;;;;;5053585;28;20312;-76
2021/07/13 05:29:37;;;;;;;;;;;17.20;99.90;;;;;;5053849;28;20394;-76
2021/07/13 05:32:03;;;;;;;;;;;17.30;99.90;;;;;;5053629;28;20265;-75
2021/07/13 05:34:29;;;;;;;;;;;17.30;99.90;;;;;;5053440;28;19980;-76
2021/07/13 05:36:54;;;;;;;;;;;17.40;99.90;;;;;;5053482;28;19905;-77
2021/07/13 05:39:20;;;;;;;;;;;17.30;99.90;;;;;;5052194;28;19904;-77
2021/07/13 05:41:46;;;;;;;;;;;17.30;99.90;;;;;;5052132;28;19904;-77
2021/07/13 05:44:11;;;;;;;;;;;17.40;99.90;;;;;;5053374;28;19927;-75
2021/07/13 05:46:37;;;;;;;;;;;17.50;99.90;;;;;;5053314;28;19905;-76
2021/07/13 05:49:03;;;;;;;;;;;17.50;99.90;;;;;;5053373;28;19916;-76
2021/07/13 05:51:28;;;;;;;;;;;17.50;99.90;;;;;;5053455;28;19905;-77
2021/07/13 05:53:55;;;;;;;;;;;17.50;99.90;;;;;;5053441;28;19909;-77
2021/07/13 05:56:21;;;;;;;;;;;17.60;99.90;;;;;;5053393;28;20358;-75
2021/07/13 05:58:46;;;;;;;;;;;17.60;99.90;;;;;;5053288;28;19911;-77
2021/07/13 06:01:12;;;;;;;;;;;17.60;99.90;;;;;;5053110;28;19920;-76
2021/07/13 06:03:38;;;;;;;;;;;17.60;99.90;;;;;;5053076;28;19951;-76
2021/07/13 06:06:03;;;;;;;;;;;17.60;99.90;;;;;;5057234;28;19912;-77
2021/07/13 06:08:29;;;;;;;;;;;17.70;99.90;;;;;;5057403;28;19995;-76
2021/07/13 06:10:55;;;;;;;;;;;17.60;99.90;;;;;;5057159;28;19905;-76
2021/07/13 06:13:20;;;;;;;;;;;17.60;99.90;;;;;;5057059;28;19908;-77
2021/07/13 06:15:46;;;;;;;;;;;17.80;99.90;;;;;;5057243;28;19912;-77
2021/07/13 06:18:15;;;;;;;;;;;17.80;99.90;;;;;;5057204;28;19948;-76
2021/07/13 06:20:41;;;;;;;;;;;17.70;99.90;;;;;;5057157;28;20369;-77
2021/07/13 06:23:06;;;;;;;;;;;17.70;99.90;;;;;;5056919;28;19905;-76
2021/07/13 06:25:32;;;;;;;;;;;17.90;99.90;;;;;;5056891;28;20008;-78
2021/07/13 06:27:57;;;;;;;;;;;17.80;99.90;;;;;;5056563;28;19905;-75
2021/07/13 06:30:23;;;;;;;;;;;17.90;99.90;;;;;;5056915;28;19915;-77
2021/07/13 06:32:48;;;;;;;;;;;18.00;99.90;;;;;;5056709;28;19911;-76
2021/07/13 06:35:14;;;;;;;;;;;18.20;99.90;;;;;;5056704;28;20285;-76
2021/07/13 06:37:41;;;;;;;;;;;18.10;99.90;;;;;;5056767;28;19912;-77
2021/07/13 06:40:07;;;;;;;;;;;18.20;99.90;;;;;;5056627;28;19954;-76
2021/07/13 06:42:32;;;;;;;;;;;18.30;99.90;;;;;;5056448;28;19909;-76
2021/07/13 06:44:58;;;;;;;;;;;18.30;99.90;;;;;;5056599;28;19904;-77
2021/07/13 06:47:24;;;;;;;;;;;18.20;99.70;;;;;;5056528;28;19954;-78
2021/07/13 06:49:49;;;;;;;;;;;18.20;99.90;;;;;;5056838;28;19911;-76
2021/07/13 06:52:15;;;;;;;;;;;18.20;99.80;;;;;;5056556;28;19957;-76
2021/07/13 06:54:41;;;;;;;;;;;18.40;99.80;;;;;;5056344;28;19908;-75
2021/07/13 06:57:06;;;;;;;;;;;18.40;99.80;;;;;;5056278;28;19916;-76
2021/07/13 06:59:34;;;;;;;;;;;18.40;99.50;;;;;;5056029;28;20399;-76
2021/07/13 07:02:00;;;;;;;;;;;18.40;99.20;;;;;;5056382;28;19909;-76
2021/07/13 07:04:25;;;;;;;;;;;18.30;99.60;;;;;;5056280;28;20331;-77
2021/07/13 07:06:51;;;;;;;;;;;18.30;99.40;;;;;;5056259;28;19931;-76
2021/07/13 07:09:16;;;;;;;;;;;18.20;99.40;;;;;;5056016;28;19911;-75
2021/07/13 07:11:42;;;;;;;;;;;18.20;99.50;;;;;;5055935;28;20306;-76
2021/07/13 07:14:07;;;;;;;;;;;18.20;99.50;;;;;;5055397;28;19952;-77
2021/07/13 07:16:33;;;;;;;;;;;18.20;99.20;;;;;;5053520;28;19904;-77
2021/07/13 07:18:59;;;;;;;;;;;18.20;99.40;;;;;;5056034;28;19904;-76
2021/07/13 07:21:24;;;;;;;;;;;18.10;99.70;;;;;;5055783;28;19905;-76
2021/07/13 07:23:50;;;;;;;;;;;18.30;99.70;;;;;;5055699;28;19905;-76
2021/07/13 07:26:16;;;;;;;;;;;18.40;99.30;;;;;;5055731;28;19908;-76
2021/07/13 07:28:41;;;;;;;;;;;18.40;99.40;;;;;;5055794;28;19912;-77
2021/07/13 07:31:07;;;;;;;;;;;18.50;98.60;;;;;;5055795;28;20323;-77
2021/07/13 07:33:33;;;;;;;;;;;18.70;98.40;;;;;;5055483;28;19919;-77
2021/07/13 07:35:59;;;;;;;;;;;18.90;98.20;;;;;;5055534;28;19983;-78
2021/07/13 07:38:26;;;;;;;;;;;19.30;97.90;;;;;;5055528;28;19911;-76
2021/07/13 07:40:51;;;;;;;;;;;19.50;97.50;;;;;;5055696;28;19905;-77
2021/07/13 07:43:17;;;;;;;;;;;19.50;97.20;;;;;;5055524;28;20277;-75
2021/07/13 07:45:43;;;;;;;;;;;19.40;97.20;;;;;;5055401;28;19951;-76
2021/07/13 07:48:08;;;;;;;;;;;19.30;97.40;;;;;;5055318;28;19912;-77
2021/07/13 07:50:34;;;;;;;;;;;19.30;97.40;;;;;;5055671;28;19905;-76
2021/07/13 07:52:59;;;;;;;;;;;19.20;97.30;;;;;;5055494;28;19908;-76
2021/07/13 07:55:26;;;;;;;;;;;19.00;97.50;;;;;;5053936;28;20353;-76
2021/07/13 07:57:52;;;;;;;;;;;19.00;97.30;;;;;;5055191;28;19905;-77
2021/07/13 08:00:18;;;;;;;;;;;19.00;97.60;;;;;;5054741;28;19916;-76
2021/07/13 08:02:44;;;;;;;;;;;19.00;97.30;;;;;;5055274;28;19912;-76
2021/07/13 08:05:10;;;;;;;;;;;19.10;97.30;;;;;;5055167;28;19928;-76
2021/07/13 08:07:36;;;;;;;;;;;19.30;97.20;;;;;;5054955;28;19905;-77
2021/07/13 08:10:03;;;;;;;;;;;19.40;96.90;;;;;;5055168;28;20369;-77
2021/07/13 08:12:29;;;;;;;;;;;19.50;96.50;;;;;;5054793;28;20304;-77
2021/07/13 08:14:54;;;;;;;;;;;19.60;96.40;;;;;;5054707;28;19935;-77
2021/07/13 08:17:20;;;;;;;;;;;19.80;96.60;;;;;;5054778;28;19995;-76
2021/07/13 08:19:46;;;;;;;;;;;19.90;95.70;;;;;;5054737;28;19912;-78
2021/07/13 08:22:11;;;;;;;;;;;20.20;95.90;;;;;;5054716;28;20421;-77
2021/07/13 08:24:37;;;;;;;;;;;19.90;94.90;;;;;;5054676;28;19904;-76
2021/07/13 08:27:07;;;;;;;;;;;19.80;95.80;;;;;;5054163;28;19909;-75
2021/07/13 08:29:33;;;;;;;;;;;19.70;95.90;;;;;;5054896;28;20359;-77
2021/07/13 08:31:59;;;;;;;;;;;19.80;95.70;;;;;;5054476;28;19905;-78
2021/07/13 08:34:29;;;;;;;;;;;20.00;95.80;;;;;;5054454;28;19962;-77
2021/07/13 08:36:54;;;;;;;;;;;20.10;95.30;;;;;;5053642;28;20400;-77
2021/07/13 08:39:20;;;;;;;;;;;20.30;95.00;;;;;;5054637;28;19905;-78
2021/07/13 08:41:46;;;;;;;;;;;20.40;94.10;;;;;;5053020;28;20009;-77
2021/07/13 08:44:12;;;;;;;;;;;20.50;94.10;;;;;;5054332;28;19906;-76
2021/07/13 08:46:38;;;;;;;;;;;20.60;93.80;;;;;;5054374;28;19932;-76
2021/07/13 08:49:06;;;;;;;;;;;20.70;93.60;;;;;;5054333;28;19905;-77
2021/07/13 08:51:32;;;;;;;;;;;21.10;93.20;;;;;;5052832;28;20332;-75
2021/07/13 08:53:58;;;;;;;;;;;21.40;92.30;;;;;;5054160;28;19908;-77
2021/07/13 08:56:23;;;;;;;;;;;21.20;92.40;;;;;;5054011;28;19958;-76
2021/07/13 08:58:49;;;;;;;;;;;20.90;92.90;;;;;;5053930;28;19909;-77
2021/07/13 09:01:14;;;;;;;;;;;21.00;93.00;;;;;;5053590;28;19999;-77
2021/07/13 09:03:56;;;;;;;;;;;21.10;92.50;;;;;;5053964;28;19913;-77
2021/07/13 09:06:25;;;;;;;;;;;21.10;92.50;;;;;;5053789;28;19911;-76
2021/07/13 09:08:52;;;;;;;;;;;21.20;91.60;;;;;;5052803;28;20288;-76
2021/07/13 09:11:19;;;;;;;;;;;21.80;91.10;;;;;;5053845;28;19983;-76
2021/07/13 09:13:44;;;;;;;;;;;22.50;90.60;;;;;;5053471;28;19908;-76
2021/07/13 09:16:14;;;;;;;;;;;22.80;88.80;;;;;;5053653;28;19905;-76
2021/07/13 09:18:41;;;;;;;;;;;22.60;88.20;;;;;;5054128;28;19904;-77
2021/07/13 09:21:17;;;;;;;;;;;22.80;89.30;;;;;;5053856;28;19904;-76
2021/07/13 09:24:03;;;;;;;;;;;22.90;87.80;;;;;;5053593;28;19916;-76
2021/07/13 09:26:38;;;;;;;;;;;23.00;86.50;;;;;;5052965;28;19908;-77
2021/07/13 09:29:03;;;;;;;;;;;23.10;85.50;;;;;;5052159;28;20007;-77
2021/07/13 09:31:29;;;;;;;;;;;23.10;85.10;;;;;;5053495;28;19948;-77
2021/07/13 09:33:55;;;;;;;;;;;23.10;85.00;;;;;;5053082;28;19996;-78
2021/07/13 09:36:20;;;;;;;;;;;23.20;84.60;;;;;;5053409;28;20000;-77
2021/07/13 09:38:46;;;;;;;;;;;23.10;84.90;;;;;;5052572;28;19906;-77
2021/07/13 09:41:11;;;;;;;;;;;23.40;85.60;;;;;;5053562;28;19905;-77
2021/07/13 09:43:41;;;;;;;;;;;23.70;84.60;;;;;;5053511;28;19912;-76
2021/07/13 09:46:21;;;;;;;;;;;23.90;82.30;;;;;;5052056;28;19905;-77
2021/07/13 09:49:14;;;;;;;;;;;23.60;83.70;;;;;;5052072;28;20058;-77
2021/07/13 09:51:40;;;;;;;;;;;23.70;83.00;;;;;;5048260;28;19905;-78
2021/07/13 09:54:25;;;;;;;;;;;23.90;81.80;;;;;;5053359;28;19977;-75
2021/07/13 09:56:51;;;;;;;;;;;24.20;81.90;;;;;;5053327;28;20039;-77
2021/07/13 09:59:17;;;;;;;;;;;24.80;80.60;;;;;;5068523;28;19948;-77
2021/07/13 10:01:42;;;;;;;;;;;24.50;80.10;;;;;;5052924;28;19921;-75
2021/07/13 10:04:08;;;;;;;;;;;24.00;80.40;;;;;;5053324;28;20428;-78
2021/07/13 10:06:34;;;;;;;;;;;24.10;82.00;;;;;;5051875;28;19992;-78
2021/07/13 10:09:00;;;;;;;;;;;24.10;80.40;;;;;;5053139;28;19904;-76
2021/07/13 10:11:28;;;;;;;;;;;23.70;82.20;;;;;;5053126;28;19943;-78
2021/07/13 10:13:55;;;;;;;;;;;23.50;83.50;;;;;;5053468;28;19909;-78
2021/07/13 10:16:21;;;;;;;;;;;23.40;83.90;;;;;;5051861;28;19905;-76
2021/07/13 10:18:46;;;;;;;;;;;23.50;84.50;;;;;;5053162;28;19974;-77
2021/07/13 10:21:12;;;;;;;;;;;23.70;84.10;;;;;;5053145;28;20011;-77
2021/07/13 10:23:38;;;;;;;;;;;23.90;83.10;;;;;;5053059;28;19928;-78
2021/07/13 10:26:06;;;;;;;;;;;24.10;81.80;;;;;;5053437;28;20386;-77
2021/07/13 10:28:33;;;;;;;;;;;24.30;81.80;;;;;;5053365;28;19908;-76
2021/07/13 10:30:58;;;;;;;;;;;25.00;79.60;;;;;;5052939;28;19915;-76
2021/07/13 10:33:28;;;;;;;;;;;24.70;79.10;;;;;;5052880;28;20280;-77
2021/07/13 10:35:56;;;;;;;;;;;25.00;77.50;;;;;;5052895;28;19954;-79
2021/07/13 10:38:25;;;;;;;;;;;25.20;77.80;;;;;;5052981;28;19904;-78
2021/07/13 10:40:57;;;;;;;;;;;25.50;75.90;;;;;;5053199;28;19912;-79
2021/07/13 10:43:24;;;;;;;;;;;25.70;75.60;;;;;;5053092;28;20054;-77
2021/07/13 10:46:22;;;;;;;;;;;26.30;73.40;;;;;;5052872;28;19906;-77
2021/07/13 10:49:07;;;;;;;;;;;26.40;72.40;;;;;;5019289;28;19905;-77
2021/07/13 10:51:36;;;;;;;;;;;26.10;72.30;;;;;;5056532;28;19916;-77
2021/07/13 10:54:10;;;;;;;;;;;25.60;74.00;;;;;;5056277;28;19908;-78
2021/07/13 10:56:36;;;;;;;;;;;25.40;74.20;;;;;;5054841;28;20391;-76
2021/07/13 10:59:20;;;;;;;;;;;25.60;74.90;;;;;;5056364;28;19905;-77
2021/07/13 11:01:46;;;;;;;;;;;26.10;72.90;;;;;;5055834;28;19917;-77
2021/07/13 11:04:12;;;;;;;;;;;26.40;71.90;;;;;;5056230;28;19909;-76
2021/07/13 11:06:42;;;;;;;;;;;26.10;71.90;;;;;;5056294;28;19912;-77
2021/07/13 11:09:18;;;;;;;;;;;25.90;72.10;;;;;;5071419;28;20320;-78
2021/07/13 11:11:44;;;;;;;;;;;25.50;74.00;;;;;;5056069;28;19904;-74
2021/07/13 11:14:10;;;;;;;;;;;25.00;76.80;;;;;;5071378;28;19909;-76
2021/07/13 11:16:37;;;;;;;;;;;24.80;77.20;;;;;;5056014;28;20430;-76
2021/07/13 11:19:04;;;;;;;;;;;24.40;78.00;;;;;;5054601;28;19958;-77
2021/07/13 11:21:31;;;;;;;;;;;24.40;78.50;;;;;;5055841;28;19913;-75
2021/07/13 11:23:57;;;;;;;;;;;24.50;78.80;;;;;;5054388;28;19904;-77
2021/07/13 11:26:23;;;;;;;;;;;25.00;77.20;;;;;;5055767;28;19959;-77
2021/07/13 11:28:49;;;;;;;;;;;25.40;75.70;;;;;;5055694;28;19904;-76
2021/07/13 11:31:19;;;;;;;;;;;26.20;74.10;;;;;;5055720;28;20262;-77
2021/07/13 11:33:56;;;;;;;;;;;26.40;70.80;;;;;;5055596;28;20326;-76
2021/07/13 11:36:25;;;;;;;;;;;26.10;70.90;;;;;;5055592;28;19905;-78
2021/07/13 11:38:51;;;;;;;;;;;25.30;74.20;;;;;;5055700;28;19950;-78
2021/07/13 11:41:17;;;;;;;;;;;25.30;74.30;;;;;;5054209;28;20307;-77
2021/07/13 11:43:43;;;;;;;;;;;25.50;73.80;;;;;;5055458;28;19926;-77
2021/07/13 11:46:10;;;;;;;;;;;25.20;73.10;;;;;;5055809;28;20365;-77
2021/07/13 11:48:35;;;;;;;;;;;25.10;74.80;;;;;;5055700;28;19999;-75
2021/07/13 11:51:03;;;;;;;;;;;25.00;74.40;;;;;;5055560;28;20325;-77
2021/07/13 11:53:29;;;;;;;;;;;24.60;76.60;;;;;;5053897;28;19916;-78
2021/07/13 11:56:01;;;;;;;;;;;24.90;76.40;;;;;;5055199;28;19905;-78
2021/07/13 11:58:28;;;;;;;;;;;24.90;76.70;;;;;;5055374;28;19904;-76
2021/07/13 12:00:53;;;;;;;;;;;24.60;77.30;;;;;;5054417;28;19974;-77
2021/07/13 12:03:26;;;;;;;;;;;25.00;77.30;;;;;;5055018;28;20312;-75
2021/07/13 12:06:11;;;;;;;;;;;25.80;75.00;;;;;;5055490;28;19909;-74
2021/07/13 12:08:37;;;;;;;;;;;27.10;71.70;;;;;;5054920;28;19911;-78
2021/07/13 12:11:04;;;;;;;;;;;27.50;67.60;;;;;;5055087;28;19915;-79
2021/07/13 12:13:30;;;;;;;;;;;28.70;65.90;;;;;;5054843;28;19909;-78
2021/07/13 12:16:15;;;;;;;;;;;29.40;62.80;;;;;;5054745;28;20311;-75
2021/07/13 12:18:41;;;;;;;;;;;29.50;60.50;;;;;;5055042;28;19905;-74
2021/07/13 12:21:07;;;;;;;;;;;28.80;60.80;;;;;;5054952;28;19909;-75
2021/07/13 12:23:33;;;;;;;;;;;27.40;63.70;;;;;;5054563;28;19963;-76
2021/07/13 12:26:18;;;;;;;;;;;26.60;68.30;;;;;;5054646;28;19909;-74
2021/07/13 12:29:03;;;;;;;;;;;27.10;67.20;;;;;;5054746;28;19909;-75
2021/07/13 12:31:29;;;;;;;;;;;28.10;63.60;;;;;;5054492;28;19912;-76
2021/07/13 12:33:54;;;;;;;;;;;28.40;62.70;;;;;;5054400;28;19908;-77
2021/07/13 12:36:30;;;;;;;;;;;29.10;61.10;;;;;;5054696;28;19952;-76
2021/07/13 12:38:56;;;;;;;;;;;29.20;60.00;;;;;;5054635;28;20016;-74
2021/07/13 12:41:25;;;;;;;;;;;28.80;60.20;;;;;;5054346;28;19912;-77
2021/07/13 12:43:51;;;;;;;;;;;29.30;59.80;;;;;;5055138;28;19909;-73
2021/07/13 12:46:26;;;;;;;;;;;29.20;60.30;;;;;;5055717;28;20391;-75
2021/07/13 12:48:52;;;;;;;;;;;28.60;60.80;;;;;;5056099;28;19912;-75
2021/07/13 12:51:26;;;;;;;;;;;28.30;61.50;;;;;;5055612;28;19905;-77
2021/07/13 12:54:04;;;;;;;;;;;28.00;62.10;;;;;;5056162;28;19924;-73
2021/07/13 12:56:32;;;;;;;;;;;27.50;64.00;;;;;;5056217;28;20060;-76
2021/07/13 12:59:08;;;;;;;;;;;27.70;63.20;;;;;;5071301;28;19905;-73
2021/07/13 13:01:35;;;;;;;;;;;28.10;62.30;;;;;;5055153;28;19980;-77
2021/07/13 13:04:20;;;;;;;;;;;28.50;61.10;;;;;;5055913;28;19905;-75
2021/07/13 13:06:45;;;;;;;;;;;28.80;60.70;;;;;;5056195;28;19905;-75
2021/07/13 13:09:15;;;;;;;;;;;28.50;61.30;;;;;;5055443;28;19954;-74
2021/07/13 13:11:42;;;;;;;;;;;28.50;61.20;;;;;;5055721;28;19912;-74
2021/07/13 13:14:10;;;;;;;;;;;28.70;61.00;;;;;;5054448;28;19908;-74
2021/07/13 13:16:38;;;;;;;;;;;29.00;61.30;;;;;;5054562;28;19904;-76
2021/07/13 13:19:04;;;;;;;;;;;29.80;57.70;;;;;;5054320;28;19940;-73
2021/07/13 13:21:30;;;;;;;;;;;29.60;56.90;;;;;;5054286;28;19955;-75
2021/07/13 13:23:57;;;;;;;;;;;29.40;57.40;;;;;;5054132;28;20344;-76
2021/07/13 13:26:23;;;;;;;;;;;29.30;59.10;;;;;;5054221;28;19995;-74
2021/07/13 13:28:49;;;;;;;;;;;29.50;56.80;;;;;;5053672;28;19905;-74
2021/07/13 13:31:15;;;;;;;;;;;28.80;57.80;;;;;;5053723;28;19911;-74
2021/07/13 13:33:42;;;;;;;;;;;27.70;60.50;;;;;;5054155;28;20361;-73
2021/07/13 13:36:26;;;;;;;;;;;27.80;60.00;;;;;;5054326;28;19912;-76
2021/07/13 13:39:14;;;;;;;;;;;28.50;60.20;;;;;;5051900;28;19911;-75
2021/07/13 13:41:40;;;;;;;;;;;30.70;57.40;;;;;;5051830;28;19951;-75
2021/07/13 13:44:05;;;;;;;;;;;32.00;52.30;;;;;;5053368;28;19905;-76
2021/07/13 13:46:31;;;;;;;;;;;32.10;51.40;;;;;;5053460;28;19905;-75
2021/07/13 13:48:57;;;;;;;;;;;32.80;48.80;;;;;;5053377;28;19944;-73
2021/07/13 13:51:22;;;;;;;;;;;31.40;51.60;;;;;;5053376;28;19905;-75
2021/07/13 13:53:48;;;;;;;;;;;29.80;52.80;;;;;;5053237;28;19978;-74
2021/07/13 13:56:15;;;;;;;;;;;29.30;54.60;;;;;;5053322;28;19909;-74
2021/07/13 13:58:41;;;;;;;;;;;30.40;54.10;;;;;;5053289;28;20357;-76
2021/07/13 14:01:08;;;;;;;;;;;30.50;52.60;;;;;;5053025;28;19917;-76
2021/07/13 14:03:34;;;;;;;;;;;30.10;52.90;;;;;;5053236;28;19911;-75
2021/07/13 14:06:00;;;;;;;;;;;29.50;53.80;;;;;;5053169;28;19905;-76
2021/07/13 14:08:25;;;;;;;;;;;28.80;55.00;;;;;;5053153;28;19912;-76
2021/07/13 14:10:51;;;;;;;;;;;27.80;57.60;;;;;;5053141;28;19904;-75
2021/07/13 14:13:17;;;;;;;;;;;27.10;58.80;;;;;;5053105;28;19958;-74
2021/07/13 14:15:42;;;;;;;;;;;26.80;59.90;;;;;;5053125;28;19912;-75
2021/07/13 14:18:08;;;;;;;;;;;26.70;61.10;;;;;;5053269;28;19908;-76